Hlavní strana
METAR-TAF:

METAR-TAF

Letiště :

Urgench, Uzbekistán

zeměpisná šířka: 41-35N, zeměpisná délka: 060-38-42E, výška: 98 m

Aktuální stav počasí

Zpráva byla vytvořena před 24 minutami, v 00:00 UTC
Jihojihozápadní vítr 2 kt
Teplota 0°C
Vlhkost vzduchu 80%
Tlak 1032 hPa
Viditelnost 10 km a více
Žádná oblačnost pod 1500 m, nevyskytují se cumulonimby.

METAR: UTNU 220000Z 21002KT CAVOK M00/M03 Q1032 R31/CLRD70 NOSIG

Čas: 05:24 (00:24 UTC)

Předpověď počasí

Zpráva byla vytvořena před 1 hodinou a 24 minutami, v 23:00 UTC
Předpověď platná od 22 v 00 UTC do 22 v 24 UTC
Jihozápadní vítr 8 kt s nárazy do 18 kt
Viditelnost: 7000 m
Dočasný
od 22 v 00 UTC do 22 v 06 UTC
vítr z různých směrů 4 kt

TAF: UTNU 212300Z 2200/2224 23008G18KT 7000 NSC TEMPO 2200/2206 VRB04KT

Stav a předpovědi počasí z více než 4 000 letišť (zprávy METAR a TAF).

Červené a žluté tečky na mapě představují dostupné meteorologické stanice.

Když kurzor umístíte na tečku, zobrazí se název stanice.

Pak kliknutím zobrazíte stav a předpověď počasí.

Chcete-li změnit mapu, kliknutím na zelené tlačítko se znaménkem +mapu přiblížíte, kliknutím na zelené tlačítko se znaménkem – mapu oddálíte a kliknutím na zelené šipky přejdete na sousední mapy.


METAR-TAF: